HomeShort term forecast

Short term forecast

Graphical weather forecast for the next 48 hours for Montreal:
Short term forecast
This weather forecast is automatically refreshed every 3 hours.

Hourly Experimental Forecast for the next 48 hours

Overall summary: Rain (with a chance of 1–3 cm. of snow) starting later this morning, continuing until tomorrow morning.

 Date & Hour   Temp   Feel   Baro   Hum   Speed & Bearing   Wind Gust   Precip.%   Precip.   Visibility   Cloud cover   Conditions 
 09/04/2020 - 06:00  2.9°C  0.3°C  997.0 hPa  75%  9.3 km/h   17.1 km/h  49%  0.03 mm/h  16.1km  100%  Possible Drizzle 
 09/04/2020 - 07:00  3.0°C  0.3°C  995.7 hPa  77%  10.0 km/h   18.8 km/h  4%  0.02 mm/h  16.1km  100%  Overcast 
 09/04/2020 - 08:00  3.4°C  0.5°C  994.4 hPa  79%  11.2 km/h   17.5 km/h  12%  0.07 mm/h  16.1km  94%  Overcast 
 09/04/2020 - 09:00  4.2°C  1.0°C  993.1 hPa  80%  13.6 km/h   22.0 km/h  25%  0.19 mm/h  16.1km  99%  Possible Drizzle 
 09/04/2020 - 10:00  5.0°C  1.7°C  991.9 hPa  81%  15.3 km/h   26.0 km/h  40%  0.57 mm/h  16.1km  100%  Possible Light Rain 
 09/04/2020 - 11:00  5.6°C  2.2°C  990.2 hPa  83%  17.3 km/h   27.8 km/h  50%  1.06 mm/h  16.1km  100%  Possible Light Rain 
 09/04/2020 - 12:00  5.6°C  2.1°C  987.9 hPa  86%  18.4 km/h   30.6 km/h  57%  1.42 mm/h  15.3km  100%  Possible Light Rain 
 09/04/2020 - 13:00  5.0°C  1.4°C  986.5 hPa  92%  17.2 km/h   30.8 km/h  71%  3.46 mm/h  7.8km  100%  Rain 
 09/04/2020 - 14:00  4.2°C  0.8°C  985.0 hPa  96%  15.4 km/h   28.9 km/h  75%  3.06 mm/h  6.4km  99%  Rain 
 09/04/2020 - 15:00  4.0°C  0.5°C  983.4 hPa  97%  15.3 km/h   29.8 km/h  74%  1.86 mm/h  7.3km  99%  Light Rain 
 09/04/2020 - 16:00  4.2°C  0.8°C  982.1 hPa  95%  14.7 km/h   28.3 km/h  74%  1.62 mm/h  8.4km  100%  Light Rain 
 09/04/2020 - 17:00  4.2°C  0.7°C  981.0 hPa  91%  15.1 km/h   28.3 km/h  74%  1.29 mm/h  10.0km  96%  Light Rain 
 09/04/2020 - 18:00  4.1°C  0.4°C  980.4 hPa  89%  16.6 km/h   26.9 km/h  70%  0.64 mm/h  13.0km  96%  Light Rain 
 09/04/2020 - 19:00  3.2°C  -1.3°C  983.0 hPa  90%  20.6 km/h   38.8 km/h  71%  0.69 mm/h  13.4km  100%  Light Rain 
 09/04/2020 - 20:00  3.1°C  -1.9°C  983.1 hPa  90%  24.0 km/h   48.2 km/h  70%  0.58 mm/h  12.4km  99%  Light Rain 
 09/04/2020 - 21:00  3.1°C  -2.1°C  982.9 hPa  90%  25.8 km/h   51.2 km/h  67%  0.51 mm/h  12.6km  99%  Light Rain 
 09/04/2020 - 22:00  3.1°C  -2.1°C  982.6 hPa  90%  27.0 km/h   50.8 km/h  66%  0.46 mm/h  13.3km  98%  Light Rain 
 09/04/2020 - 23:00  3.0°C  -2.3°C  982.2 hPa  90%  27.2 km/h   49.8 km/h  64%  0.43 mm/h  13.8km  97%  Possible Light Rain 
 10/04/2020 - 00:00  2.7°C  -2.6°C  981.7 hPa  90%  26.7 km/h   48.5 km/h  59%  0.42 mm/h  14.3km  97%  Possible Light Rain 
 10/04/2020 - 01:00  2.3°C  -3.0°C  981.2 hPa  92%  25.5 km/h   46.6 km/h  53%  0.43 mm/h  14.8km  98%  Possible Light Rain 
 10/04/2020 - 02:00  1.9°C  -3.3°C  980.8 hPa  94%  23.9 km/h   44.5 km/h  51%  0.43 mm/h  13.8km  99%  Possible Light Rain 
 10/04/2020 - 03:00  1.7°C  -3.3°C  980.5 hPa  94%  21.5 km/h   41.5 km/h  50%  0.42 mm/h  9.6km  99%  Possible Light Rain 
 10/04/2020 - 04:00  1.5°C  -3.1°C  980.3 hPa  94%  18.9 km/h   37.7 km/h  50%  0.46 mm/h  3.8km  100%  Possible Light Rain 
 10/04/2020 - 05:00  1.4°C  -3.1°C  980.5 hPa  95%  17.2 km/h   35.3 km/h  53%  0.51 mm/h  0.0km  100%  Possible Light Rain 
 10/04/2020 - 06:00  1.3°C  -3.2°C  981.2 hPa  95%  17.3 km/h   36.6 km/h  53%  0.49 mm/h  0.1km  100%  Possible Light Rain 
 10/04/2020 - 07:00  1.2°C  -3.4°C  982.2 hPa  97%  18.4 km/h   39.5 km/h  53%  0.45 mm/h  2.2km  100%  Possible Light Snow 
 10/04/2020 - 08:00  1.3°C  -3.6°C  983.3 hPa  97%  19.8 km/h   41.2 km/h  51%  0.39 mm/h  4.7km  100%  Possible Light Snow 
 10/04/2020 - 09:00  1.8°C  -3.2°C  984.3 hPa  96%  21.3 km/h   40.2 km/h  46%  0.31 mm/h  7.3km  100%  Possible Light Snow 
 10/04/2020 - 10:00  2.5°C  -2.5°C  985.4 hPa  93%  22.8 km/h   38.1 km/h  38%  0.24 mm/h  10.4km  100%  Possible Flurries 
 10/04/2020 - 11:00  3.1°C  -1.8°C  986.5 hPa  86%  24.0 km/h   36.7 km/h  33%  0.18 mm/h  13.1km  100%  Possible Flurries 
 10/04/2020 - 12:00  4.0°C  -0.7°C  987.5 hPa  78%  24.9 km/h   36.7 km/h  24%  0.10 mm/h  14.7km  100%  Overcast 
 10/04/2020 - 13:00  5.0°C  0.4°C  988.4 hPa  72%  25.6 km/h   37.4 km/h  19%  0.04 mm/h  15.7km  100%  Overcast 
 10/04/2020 - 14:00  6.1°C  1.8°C  989.4 hPa  66%  25.9 km/h   37.9 km/h  12%  0.03 mm/h  16.1km  100%  Overcast 
 10/04/2020 - 15:00  6.8°C  2.8°C  990.4 hPa  62%  25.9 km/h   37.5 km/h  8%  0.02 mm/h  16.1km  100%  Overcast 
 10/04/2020 - 16:00  7.2°C  3.3°C  991.4 hPa  59%  25.6 km/h   37.0 km/h  6%  0.01 mm/h  16.1km  100%  Overcast 
 10/04/2020 - 17:00  7.1°C  3.2°C  992.5 hPa  58%  25.1 km/h   37.0 km/h  5%  0.01 mm/h  16.1km  100%  Overcast 
 10/04/2020 - 18:00  6.3°C  2.3°C  993.7 hPa  59%  24.0 km/h   38.2 km/h  4%  0.01 mm/h  16.1km  98%  Overcast 
 10/04/2020 - 19:00  5.1°C  0.9°C  995.0 hPa  62%  22.5 km/h   40.0 km/h  3%  0.01 mm/h  16.1km  94%  Overcast 
 10/04/2020 - 20:00  4.1°C  -0.2°C  996.2 hPa  65%  21.5 km/h   41.4 km/h  3%  0.01 mm/h  16.1km  88%  Overcast 
 10/04/2020 - 21:00  3.3°C  -1.2°C  997.2 hPa  68%  21.3 km/h   42.0 km/h  2%  0.01 mm/h  16.1km  72%  Mostly Cloudy 
 10/04/2020 - 22:00  2.6°C  -2.2°C  998.1 hPa  72%  21.6 km/h   42.1 km/h  2%  0.01 mm/h  16.1km  53%  Partly Cloudy 
 10/04/2020 - 23:00  1.9°C  -3.0°C  998.9 hPa  75%  21.7 km/h   42.3 km/h  0%  --  16.1km  36%  Partly Cloudy 
 11/04/2020 - 00:00  1.4°C  -3.7°C  999.3 hPa  76%  21.5 km/h   42.5 km/h  0%  --  16.1km  24%  Clear 
 11/04/2020 - 01:00  0.9°C  -4.3°C  999.8 hPa  76%  21.3 km/h   42.8 km/h  0%  --  16.1km  15%  Clear 
 11/04/2020 - 02:00  0.4°C  -4.9°C  1000.2 hPa  76%  21.0 km/h   43.0 km/h  0%  --  16.1km  11%  Clear 
 11/04/2020 - 03:00  0.1°C  -5.3°C  1000.9 hPa  76%  20.9 km/h   43.1 km/h  0%  --  16.1km  17%  Clear 
 11/04/2020 - 04:00  -0.2°C  -5.6°C  1001.5 hPa  76%  20.7 km/h   43.1 km/h  0%  --  16.1km  28%  Clear 
 11/04/2020 - 05:00  -0.3°C  -5.7°C  1002.2 hPa  76%  20.8 km/h   42.8 km/h  0%  --  16.1km  38%  Partly Cloudy 
Test

 

Past weather and reports

Past weatherFind in this section the past weather conditions, weather archive, graphics, reports and statistics.

Current conditions

Current weather condition for MontrealAll you need to know about the current weather conditions for Montreal. Weather data is updated every 10 minutes.

Weather forecast

Current Montreal weatherSince 2004, celinium.com website has provided accurate weather forecast for Montreal's island.